Spruce Grove, Canada
Current Conditions -  °F | °C
As of 7:00 AM on Thursday 23 Oct 2014 (Local Time) from CWSE Reporting Station
Few Clouds Few Clouds  
Wind Chill: 36°   Ceiling: Unl
Heat Index: 41°   Visibility: 15mi
Dew Point: 34°   Wind: 8mph
Humidity: 76%   Direction: 330°NNW
Pressure: 29.4"   Gusts: NA
Location:  53.54°N, 113.9°W
Report Text: CWSE 231300Z 33007KT 15SM FEW148 05/01 A2940 RMK SLP957 T00520012 WSI/SWOB
Loading
Personal Weather Stations






























Interactive Weather Map
Tropical Storm Tracking
New forecast layout! Learn more

10-Day Weather Forecast

Advertisements
Track Severe Weather on mobile